sensor_id;sensor_type;location;lat;lon;timestamp;pressure;altitude;pressure_sealevel;temperature;humidity
55291;BME280;41155;39.768;2.712;2023-02-19T00:01:41;102599.00;;;9.56;73.15
55291;BME280;41155;39.768;2.712;2023-02-19T00:04:18;102577.75;;;9.40;73.60
55291;BME280;41155;39.768;2.712;2023-02-19T00:06:45;102598.75;;;9.51;73.64
55291;BME280;41155;39.768;2.712;2023-02-19T00:09:13;102593.16;;;9.46;73.93
55291;BME280;41155;39.768;2.712;2023-02-19T00:11:39;102590.53;;;9.31;73.39
55291;BME280;41155;39.768;2.712;2023-02-19T00:14:05;102591.97;;;9.27;73.35
55291;BME280;41155;39.768;2.712;2023-02-19T00:16:32;102584.97;;;9.33;73.46
55291;BME280;41155;39.768;2.712;2023-02-19T00:18:59;102583.69;;;9.28;74.18
55291;BME280;41155;39.768;2.712;2023-02-19T00:21:25;102572.53;;;9.32;74.45
55291;BME280;41155;39.768;2.712;2023-02-19T00:23:56;102568.97;;;9.31;74.55
55291;BME280;41155;39.768;2.712;2023-02-19T00:26:23;102568.34;;;9.29;74.85
55291;BME280;41155;39.768;2.712;2023-02-19T00:28:50;102585.22;;;9.38;74.46
55291;BME280;41155;39.768;2.712;2023-02-19T00:33:42;102580.78;;;9.30;74.15
55291;BME280;41155;39.768;2.712;2023-02-19T00:36:08;102591.75;;;9.28;74.34
55291;BME280;41155;39.768;2.712;2023-02-19T00:38:37;102583.06;;;9.26;73.96
55291;BME280;41155;39.768;2.712;2023-02-19T00:41:03;102585.50;;;9.21;73.80
55291;BME280;41155;39.768;2.712;2023-02-19T00:43:57;102576.47;;;9.08;74.05
55291;BME280;41155;39.768;2.712;2023-02-19T00:48:50;102570.25;;;9.07;75.71
55291;BME280;41155;39.768;2.712;2023-02-19T00:51:21;102565.00;;;8.99;75.07
55291;BME280;41155;39.768;2.712;2023-02-19T00:53:47;102565.63;;;8.94;75.59
55291;BME280;41155;39.768;2.712;2023-02-19T00:56:12;102564.97;;;8.92;75.23
55291;BME280;41155;39.768;2.712;2023-02-19T00:58:38;102563.31;;;8.91;75.21
55291;BME280;41155;39.768;2.712;2023-02-19T01:01:05;102561.88;;;8.95;75.54
55291;BME280;41155;39.768;2.712;2023-02-19T01:03:32;102555.41;;;8.90;75.83
55291;BME280;41155;39.768;2.712;2023-02-19T01:05:57;102547.97;;;8.92;75.76
55291;BME280;41155;39.768;2.712;2023-02-19T01:08:23;102542.50;;;8.85;75.56
55291;BME280;41155;39.768;2.712;2023-02-19T01:10:48;102550.66;;;8.92;75.77
55291;BME280;41155;39.768;2.712;2023-02-19T01:13:14;102550.84;;;8.90;75.29
55291;BME280;41155;39.768;2.712;2023-02-19T01:15:39;102507.59;;;8.70;74.73
55291;BME280;41155;39.768;2.712;2023-02-19T01:18:05;102515.97;;;8.82;74.40
55291;BME280;41155;39.768;2.712;2023-02-19T01:20:30;102526.97;;;8.80;74.35
55291;BME280;41155;39.768;2.712;2023-02-19T01:22:56;102533.59;;;8.85;74.61
55291;BME280;41155;39.768;2.712;2023-02-19T01:25:21;102536.81;;;8.95;74.16
55291;BME280;41155;39.768;2.712;2023-02-19T01:27:47;102533.59;;;8.85;74.40
55291;BME280;41155;39.768;2.712;2023-02-19T01:30:12;102536.69;;;8.81;74.51
55291;BME280;41155;39.768;2.712;2023-02-19T01:32:38;102528.16;;;8.78;74.96
55291;BME280;41155;39.768;2.712;2023-02-19T01:35:03;102523.53;;;8.65;74.99
55291;BME280;41155;39.768;2.712;2023-02-19T01:37:29;102510.81;;;8.59;75.57
55291;BME280;41155;39.768;2.712;2023-02-19T01:39:55;102519.16;;;8.64;75.34
55291;BME280;41155;39.768;2.712;2023-02-19T01:42:20;102492.09;;;8.29;75.19
55291;BME280;41155;39.768;2.712;2023-02-19T01:47:12;102490.31;;;8.36;76.02
55291;BME280;41155;39.768;2.712;2023-02-19T01:49:59;102531.91;;;8.55;75.58
55291;BME280;41155;39.768;2.712;2023-02-19T01:52:28;102513.13;;;8.41;75.85
55291;BME280;41155;39.768;2.712;2023-02-19T01:54:56;102484.13;;;8.21;75.77
55291;BME280;41155;39.768;2.712;2023-02-19T01:57:25;102503.75;;;8.36;76.25
55291;BME280;41155;39.768;2.712;2023-02-19T01:59:57;102473.38;;;8.21;76.73
55291;BME280;41155;39.768;2.712;2023-02-19T02:02:26;102488.50;;;8.22;75.51
55291;BME280;41155;39.768;2.712;2023-02-19T02:04:54;102487.97;;;8.12;76.61
55291;BME280;41155;39.768;2.712;2023-02-19T02:07:21;102481.34;;;8.08;77.33
55291;BME280;41155;39.768;2.712;2023-02-19T02:10:05;102477.34;;;8.04;77.75
55291;BME280;41155;39.768;2.712;2023-02-19T02:12:51;102434.69;;;7.79;78.37
55291;BME280;41155;39.768;2.712;2023-02-19T02:15:17;102442.25;;;7.90;78.34
55291;BME280;41155;39.768;2.712;2023-02-19T02:20:32;102461.19;;;8.04;78.39
55291;BME280;41155;39.768;2.712;2023-02-19T02:31:06;102467.03;;;8.29;76.93
55291;BME280;41155;39.768;2.712;2023-02-19T02:33:43;102462.44;;;8.23;76.89
55291;BME280;41155;39.768;2.712;2023-02-19T02:36:16;102443.66;;;8.08;76.74
55291;BME280;41155;39.768;2.712;2023-02-19T02:38:44;102448.84;;;8.09;76.27
55291;BME280;41155;39.768;2.712;2023-02-19T02:41:12;102431.09;;;7.93;76.32
55291;BME280;41155;39.768;2.712;2023-02-19T02:43:38;102426.13;;;7.90;76.93
55291;BME280;41155;39.768;2.712;2023-02-19T02:46:03;102455.44;;;8.07;77.23
55291;BME280;41155;39.768;2.712;2023-02-19T02:51:23;102455.25;;;8.08;77.25
55291;BME280;41155;39.768;2.712;2023-02-19T02:53:53;102458.38;;;8.12;77.55
55291;BME280;41155;39.768;2.712;2023-02-19T02:56:40;102453.22;;;8.10;77.31
55291;BME280;41155;39.768;2.712;2023-02-19T02:59:09;102453.00;;;8.12;76.92
55291;BME280;41155;39.768;2.712;2023-02-19T03:07:04;102448.06;;;7.94;76.30
55291;BME280;41155;39.768;2.712;2023-02-19T03:09:37;102420.25;;;7.65;76.39
55291;BME280;41155;39.768;2.712;2023-02-19T03:12:10;102437.75;;;7.76;76.60
55291;BME280;41155;39.768;2.712;2023-02-19T03:14:59;102426.22;;;7.61;76.88
55291;BME280;41155;39.768;2.712;2023-02-19T03:17:52;102440.94;;;7.65;77.74
55291;BME280;41155;39.768;2.712;2023-02-19T03:20:41;102443.06;;;7.69;77.90
55291;BME280;41155;39.768;2.712;2023-02-19T03:23:10;102444.50;;;7.72;77.42
55291;BME280;41155;39.768;2.712;2023-02-19T03:25:38;102436.06;;;7.75;77.84
55291;BME280;41155;39.768;2.712;2023-02-19T03:28:26;102444.13;;;7.75;77.50
55291;BME280;41155;39.768;2.712;2023-02-19T03:31:17;102421.66;;;7.61;77.42
55291;BME280;41155;39.768;2.712;2023-02-19T03:33:46;102437.47;;;7.71;77.45
55291;BME280;41155;39.768;2.712;2023-02-19T03:36:14;102425.97;;;7.77;77.08
55291;BME280;41155;39.768;2.712;2023-02-19T03:38:59;102428.84;;;7.76;76.84
55291;BME280;41155;39.768;2.712;2023-02-19T03:46:55;102416.19;;;7.55;76.82
55291;BME280;41155;39.768;2.712;2023-02-19T03:49:31;102431.44;;;7.69;76.95
55291;BME280;41155;39.768;2.712;2023-02-19T04:00:17;102398.13;;;7.48;77.62
55291;BME280;41155;39.768;2.712;2023-02-19T04:02:54;102420.91;;;7.67;77.70
55291;BME280;41155;39.768;2.712;2023-02-19T04:05:25;102416.91;;;7.63;76.48
55291;BME280;41155;39.768;2.712;2023-02-19T04:07:56;102424.25;;;7.55;75.84
55291;BME280;41155;39.768;2.712;2023-02-19T04:10:23;102427.53;;;7.50;76.08
55291;BME280;41155;39.768;2.712;2023-02-19T04:13:01;102427.31;;;7.52;75.96
55291;BME280;41155;39.768;2.712;2023-02-19T04:15:31;102419.84;;;7.47;75.74
55291;BME280;41155;39.768;2.712;2023-02-19T04:18:01;102441.41;;;7.54;76.32
55291;BME280;41155;39.768;2.712;2023-02-19T04:20:33;102438.56;;;7.55;75.29
55291;BME280;41155;39.768;2.712;2023-02-19T04:23:00;102431.16;;;7.42;75.31
55291;BME280;41155;39.768;2.712;2023-02-19T04:25:27;102448.81;;;7.52;75.46
55291;BME280;41155;39.768;2.712;2023-02-19T04:27:53;102446.13;;;7.52;75.41
55291;BME280;41155;39.768;2.712;2023-02-19T04:30:20;102415.59;;;7.38;75.16
55291;BME280;41155;39.768;2.712;2023-02-19T04:32:45;102437.84;;;7.46;74.31
55291;BME280;41155;39.768;2.712;2023-02-19T04:35:11;102396.66;;;7.10;75.28
55291;BME280;41155;39.768;2.712;2023-02-19T04:37:36;102448.22;;;7.35;75.98
55291;BME280;41155;39.768;2.712;2023-02-19T04:40:02;102444.97;;;7.39;75.81
55291;BME280;41155;39.768;2.712;2023-02-19T04:42:27;102426.09;;;7.33;76.07
55291;BME280;41155;39.768;2.712;2023-02-19T04:44:53;102426.72;;;7.35;75.85
55291;BME280;41155;39.768;2.712;2023-02-19T04:47:21;102437.94;;;7.38;76.05
55291;BME280;41155;39.768;2.712;2023-02-19T04:49:47;102398.31;;;7.11;75.60
55291;BME280;41155;39.768;2.712;2023-02-19T04:52:12;102437.09;;;7.38;75.97
55291;BME280;41155;39.768;2.712;2023-02-19T04:54:38;102436.06;;;7.39;76.03
55291;BME280;41155;39.768;2.712;2023-02-19T04:57:03;102435.78;;;7.34;75.51
55291;BME280;41155;39.768;2.712;2023-02-19T04:59:29;102439.69;;;7.31;75.87
55291;BME280;41155;39.768;2.712;2023-02-19T05:01:54;102442.75;;;7.28;75.94
55291;BME280;41155;39.768;2.712;2023-02-19T05:04:21;102405.81;;;7.00;75.96
55291;BME280;41155;39.768;2.712;2023-02-19T05:06:48;102432.22;;;7.12;75.18
55291;BME280;41155;39.768;2.712;2023-02-19T05:09:14;102451.47;;;7.30;74.85
55291;BME280;41155;39.768;2.712;2023-02-19T05:11:39;102438.69;;;7.17;74.39
55291;BME280;41155;39.768;2.712;2023-02-19T05:14:05;102438.44;;;6.97;75.40
55291;BME280;41155;39.768;2.712;2023-02-19T05:16:30;102448.50;;;6.95;76.34
55291;BME280;41155;39.768;2.712;2023-02-19T05:18:57;102450.75;;;6.92;76.78
55291;BME280;41155;39.768;2.712;2023-02-19T05:21:23;102455.53;;;6.96;76.87
55291;BME280;41155;39.768;2.712;2023-02-19T05:23:48;102450.53;;;6.93;76.59
55291;BME280;41155;39.768;2.712;2023-02-19T05:26:17;102468.72;;;7.06;76.98
55291;BME280;41155;39.768;2.712;2023-02-19T05:28:48;102448.06;;;6.92;76.75
55291;BME280;41155;39.768;2.712;2023-02-19T05:31:14;102471.78;;;7.03;76.62
55291;BME280;41155;39.768;2.712;2023-02-19T05:33:40;102457.09;;;6.91;75.71
55291;BME280;41155;39.768;2.712;2023-02-19T05:36:10;102470.53;;;7.06;75.99
55291;BME280;41155;39.768;2.712;2023-02-19T05:38:36;102480.66;;;7.04;75.96
55291;BME280;41155;39.768;2.712;2023-02-19T05:41:11;102468.22;;;7.02;75.89
55291;BME280;41155;39.768;2.712;2023-02-19T05:43:38;102464.47;;;7.12;75.77
55291;BME280;41155;39.768;2.712;2023-02-19T05:46:04;102466.66;;;7.08;75.84
55291;BME280;41155;39.768;2.712;2023-02-19T05:48:30;102471.19;;;7.08;76.01
55291;BME280;41155;39.768;2.712;2023-02-19T05:51:03;102465.66;;;7.09;76.02
55291;BME280;41155;39.768;2.712;2023-02-19T05:53:29;102478.88;;;7.11;75.48
55291;BME280;41155;39.768;2.712;2023-02-19T05:55:55;102466.41;;;7.03;75.66
55291;BME280;41155;39.768;2.712;2023-02-19T05:58:20;102457.31;;;6.89;75.33
55291;BME280;41155;39.768;2.712;2023-02-19T06:00:46;102452.09;;;6.88;74.98
55291;BME280;41155;39.768;2.712;2023-02-19T06:03:11;102466.19;;;6.90;74.92
55291;BME280;41155;39.768;2.712;2023-02-19T06:05:37;102485.53;;;7.00;74.74
55291;BME280;41155;39.768;2.712;2023-02-19T06:08:02;102438.31;;;6.76;74.52
55291;BME280;41155;39.768;2.712;2023-02-19T06:10:28;102454.25;;;6.77;74.43
55291;BME280;41155;39.768;2.712;2023-02-19T06:12:53;102485.09;;;6.96;74.81
55291;BME280;41155;39.768;2.712;2023-02-19T06:15:20;102472.00;;;6.78;74.24
55291;BME280;41155;39.768;2.712;2023-02-19T06:17:46;102485.34;;;6.72;75.85
55291;BME280;41155;39.768;2.712;2023-02-19T06:20:11;102478.44;;;6.54;76.37
55291;BME280;41155;39.768;2.712;2023-02-19T06:22:36;102480.22;;;6.62;76.39
55291;BME280;41155;39.768;2.712;2023-02-19T06:25:02;102485.22;;;6.65;76.28
55291;BME280;41155;39.768;2.712;2023-02-19T06:27:27;102471.03;;;6.56;76.16
55291;BME280;41155;39.768;2.712;2023-02-19T06:29:53;102463.63;;;6.59;76.54
55291;BME280;41155;39.768;2.712;2023-02-19T06:32:19;102478.13;;;6.72;76.33
55291;BME280;41155;39.768;2.712;2023-02-19T06:34:44;102471.34;;;6.76;76.48
55291;BME280;41155;39.768;2.712;2023-02-19T06:37:10;102455.22;;;6.62;76.33
55291;BME280;41155;39.768;2.712;2023-02-19T06:39:35;102492.97;;;6.83;76.53
55291;BME280;41155;39.768;2.712;2023-02-19T06:42:01;102462.91;;;6.65;76.18
55291;BME280;41155;39.768;2.712;2023-02-19T06:44:26;102491.47;;;6.81;75.26
55291;BME280;41155;39.768;2.712;2023-02-19T06:46:54;102461.19;;;6.72;74.29
55291;BME280;41155;39.768;2.712;2023-02-19T06:49:20;102499.81;;;6.86;74.79
55291;BME280;41155;39.768;2.712;2023-02-19T06:51:45;102478.78;;;6.74;74.63
55291;BME280;41155;39.768;2.712;2023-02-19T06:54:11;102463.09;;;6.63;74.72
55291;BME280;41155;39.768;2.712;2023-02-19T06:56:38;102461.78;;;6.59;74.82
55291;BME280;41155;39.768;2.712;2023-02-19T06:59:07;102504.31;;;6.85;75.03
55291;BME280;41155;39.768;2.712;2023-02-19T07:01:34;102495.63;;;6.83;75.06
55291;BME280;41155;39.768;2.712;2023-02-19T07:04:00;102496.47;;;6.84;75.08
55291;BME280;41155;39.768;2.712;2023-02-19T07:06:26;102506.47;;;6.90;75.03
55291;BME280;41155;39.768;2.712;2023-02-19T07:08:54;102516.13;;;6.99;74.79
55291;BME280;41155;39.768;2.712;2023-02-19T07:11:20;102515.00;;;6.93;75.02
55291;BME280;41155;39.768;2.712;2023-02-19T07:13:46;102491.47;;;6.81;75.00
55291;BME280;41155;39.768;2.712;2023-02-19T07:16:12;102519.09;;;7.04;75.42
55291;BME280;41155;39.768;2.712;2023-02-19T07:18:39;102515.38;;;7.05;74.42
55291;BME280;41155;39.768;2.712;2023-02-19T07:21:06;102524.38;;;7.12;74.35
55291;BME280;41155;39.768;2.712;2023-02-19T07:23:35;102439.47;;;6.59;74.32
55291;BME280;41155;39.768;2.712;2023-02-19T07:26:01;102492.78;;;6.99;74.29
55291;BME280;41155;39.768;2.712;2023-02-19T07:28:27;102524.66;;;7.17;74.61
55291;BME280;41155;39.768;2.712;2023-02-19T07:30:52;102506.13;;;7.08;73.67
55291;BME280;41155;39.768;2.712;2023-02-19T07:33:18;102499.47;;;7.04;73.44
55291;BME280;41155;39.768;2.712;2023-02-19T07:35:45;102521.88;;;7.11;73.46
55291;BME280;41155;39.768;2.712;2023-02-19T07:38:11;102520.31;;;7.16;74.38
55291;BME280;41155;39.768;2.712;2023-02-19T07:40:36;102525.97;;;7.21;74.49
55291;BME280;41155;39.768;2.712;2023-02-19T07:43:02;102489.91;;;7.01;74.35
55291;BME280;41155;39.768;2.712;2023-02-19T07:45:27;102526.72;;;7.30;75.02
55291;BME280;41155;39.768;2.712;2023-02-19T07:47:53;102530.69;;;7.34;75.07
55291;BME280;41155;39.768;2.712;2023-02-19T07:50:18;102520.59;;;7.36;74.86
55291;BME280;41155;39.768;2.712;2023-02-19T07:52:44;102508.19;;;7.35;74.50
55291;BME280;41155;39.768;2.712;2023-02-19T07:55:09;102525.78;;;7.53;74.19
55291;BME280;41155;39.768;2.712;2023-02-19T07:57:35;102507.22;;;7.43;74.84
55291;BME280;41155;39.768;2.712;2023-02-19T08:00:00;102519.00;;;7.57;73.60
55291;BME280;41155;39.768;2.712;2023-02-19T08:02:26;102519.94;;;7.64;73.53
55291;BME280;41155;39.768;2.712;2023-02-19T08:05:10;102519.66;;;7.59;73.54
55291;BME280;41155;39.768;2.712;2023-02-19T08:07:36;102518.34;;;7.69;73.57
55291;BME280;41155;39.768;2.712;2023-02-19T08:10:03;102524.69;;;7.83;72.70
55291;BME280;41155;39.768;2.712;2023-02-19T08:12:57;102485.22;;;7.69;72.69
55291;BME280;41155;39.768;2.712;2023-02-19T08:15:41;102505.88;;;7.83;72.69
55291;BME280;41155;39.768;2.712;2023-02-19T08:18:07;102492.59;;;7.97;72.45
55291;BME280;41155;39.768;2.712;2023-02-19T08:20:33;102468.38;;;7.97;72.41
55291;BME280;41155;39.768;2.712;2023-02-19T08:22:58;102479.19;;;8.40;72.05
55291;BME280;41155;39.768;2.712;2023-02-19T08:25:24;102528.50;;;9.59;70.58
55291;BME280;41155;39.768;2.712;2023-02-19T08:27:50;102522.44;;;11.51;64.83
55291;BME280;41155;39.768;2.712;2023-02-19T08:30:16;102515.72;;;13.38;58.36
55291;BME280;41155;39.768;2.712;2023-02-19T08:32:41;102489.06;;;14.55;54.27
55291;BME280;41155;39.768;2.712;2023-02-19T08:35:07;102524.25;;;16.42;49.29
55291;BME280;41155;39.768;2.712;2023-02-19T08:37:32;102535.84;;;17.38;45.39
55291;BME280;41155;39.768;2.712;2023-02-19T08:39:58;102533.34;;;16.02;46.36
55291;BME280;41155;39.768;2.712;2023-02-19T08:42:23;102533.53;;;16.91;44.01
55291;BME280;41155;39.768;2.712;2023-02-19T08:44:49;102522.41;;;18.89;41.36
55291;BME280;41155;39.768;2.712;2023-02-19T08:47:14;102516.03;;;21.32;36.72
55291;BME280;41155;39.768;2.712;2023-02-19T08:49:40;102511.97;;;21.84;34.96
55291;BME280;41155;39.768;2.712;2023-02-19T08:52:05;102529.06;;;22.55;32.97
55291;BME280;41155;39.768;2.712;2023-02-19T08:54:31;102496.16;;;24.08;31.42
55291;BME280;41155;39.768;2.712;2023-02-19T08:56:57;102526.03;;;25.32;29.33
55291;BME280;41155;39.768;2.712;2023-02-19T08:59:22;102525.31;;;26.26;27.78
55291;BME280;41155;39.768;2.712;2023-02-19T09:01:47;102500.69;;;27.01;26.36
55291;BME280;41155;39.768;2.712;2023-02-19T09:04:13;102528.31;;;27.72;25.26
55291;BME280;41155;39.768;2.712;2023-02-19T09:06:38;102521.31;;;28.27;24.46
55291;BME280;41155;39.768;2.712;2023-02-19T09:09:04;102516.88;;;27.73;25.23
55291;BME280;41155;39.768;2.712;2023-02-19T09:11:29;102519.31;;;27.66;25.52
55291;BME280;41155;39.768;2.712;2023-02-19T09:13:55;102527.84;;;28.22;24.93
55291;BME280;41155;39.768;2.712;2023-02-19T09:16:21;102483.06;;;28.41;24.00
55291;BME280;41155;39.768;2.712;2023-02-19T09:18:47;102505.97;;;29.02;23.60
55291;BME280;41155;39.768;2.712;2023-02-19T09:21:12;102506.06;;;29.15;23.42
55291;BME280;41155;39.768;2.712;2023-02-19T09:23:38;102528.47;;;29.10;23.61
55291;BME280;41155;39.768;2.712;2023-02-19T09:26:06;102534.72;;;28.42;24.46
55291;BME280;41155;39.768;2.712;2023-02-19T09:28:34;102542.13;;;27.06;25.92
55291;BME280;41155;39.768;2.712;2023-02-19T09:31:04;102526.50;;;25.61;27.46
55291;BME280;41155;39.768;2.712;2023-02-19T09:33:30;102536.91;;;24.68;28.70
55291;BME280;41155;39.768;2.712;2023-02-19T09:35:58;102546.56;;;23.95;30.43
55291;BME280;41155;39.768;2.712;2023-02-19T09:38:25;102551.16;;;23.08;31.96
55291;BME280;41155;39.768;2.712;2023-02-19T09:40:51;102546.25;;;22.42;33.58
55291;BME280;41155;39.768;2.712;2023-02-19T09:43:20;102551.53;;;21.83;34.73
55291;BME280;41155;39.768;2.712;2023-02-19T09:45:47;102545.69;;;21.25;35.53
55291;BME280;41155;39.768;2.712;2023-02-19T09:48:14;102529.31;;;20.84;36.03
55291;BME280;41155;39.768;2.712;2023-02-19T09:50:46;102547.72;;;20.63;36.53
55291;BME280;41155;39.768;2.712;2023-02-19T09:53:22;102530.13;;;20.28;37.14
55291;BME280;41155;39.768;2.712;2023-02-19T09:55:49;102535.88;;;20.32;37.65
55291;BME280;41155;39.768;2.712;2023-02-19T09:58:35;102542.72;;;20.24;38.39
55291;BME280;41155;39.768;2.712;2023-02-19T10:01:09;102536.13;;;20.30;39.13
55291;BME280;41155;39.768;2.712;2023-02-19T10:03:40;102502.91;;;19.91;39.63
55291;BME280;41155;39.768;2.712;2023-02-19T10:06:21;102532.31;;;20.52;38.95
55291;BME280;41155;39.768;2.712;2023-02-19T10:08:50;102533.13;;;20.88;38.74
55291;BME280;41155;39.768;2.712;2023-02-19T10:11:17;102536.59;;;21.45;37.78
55291;BME280;41155;39.768;2.712;2023-02-19T10:13:45;102515.44;;;22.40;35.64
55291;BME280;41155;39.768;2.712;2023-02-19T10:16:25;102501.28;;;24.33;32.42
55291;BME280;41155;39.768;2.712;2023-02-19T10:18:51;102509.59;;;26.58;29.02
55291;BME280;41155;39.768;2.712;2023-02-19T10:21:25;102524.81;;;27.40;27.24
55291;BME280;41155;39.768;2.712;2023-02-19T10:24:17;102527.91;;;28.78;25.31
55291;BME280;41155;39.768;2.712;2023-02-19T10:26:44;102500.47;;;30.74;23.84
55291;BME280;41155;39.768;2.712;2023-02-19T10:29:10;102516.84;;;31.86;21.76
55291;BME280;41155;39.768;2.712;2023-02-19T10:31:35;102511.13;;;32.98;20.95
55291;BME280;41155;39.768;2.712;2023-02-19T10:34:01;102515.81;;;33.61;20.02
55291;BME280;41155;39.768;2.712;2023-02-19T10:36:39;102493.34;;;34.16;19.15
55291;BME280;41155;39.768;2.712;2023-02-19T10:41:48;102514.44;;;34.29;19.29
55291;BME280;41155;39.768;2.712;2023-02-19T10:44:17;102505.59;;;33.69;19.29
55291;BME280;41155;39.768;2.712;2023-02-19T10:46:48;102511.91;;;32.83;19.69
55291;BME280;41155;39.768;2.712;2023-02-19T10:51:40;102510.63;;;36.31;16.42
55291;BME280;41155;39.768;2.712;2023-02-19T10:54:19;102493.69;;;37.13;16.35
55291;BME280;41155;39.768;2.712;2023-02-19T10:56:49;102494.78;;;37.56;16.53
55291;BME280;41155;39.768;2.712;2023-02-19T10:59:26;102499.19;;;37.53;17.32
55291;BME280;41155;39.768;2.712;2023-02-19T11:02:07;102492.75;;;37.60;17.80
55291;BME280;41155;39.768;2.712;2023-02-19T11:04:39;102487.75;;;38.27;16.62
55291;BME280;41155;39.768;2.712;2023-02-19T11:07:18;102492.63;;;38.91;16.73
55291;BME280;41155;39.768;2.712;2023-02-19T11:09:46;102482.34;;;39.68;16.03
55291;BME280;41155;39.768;2.712;2023-02-19T11:14:49;102487.50;;;39.91;15.37
55291;BME280;41155;39.768;2.712;2023-02-19T11:17:26;102459.91;;;39.18;16.07
55291;BME280;41155;39.768;2.712;2023-02-19T11:19:55;102473.69;;;38.44;16.40
55291;BME280;41155;39.768;2.712;2023-02-19T11:22:36;102492.22;;;38.78;16.42
55291;BME280;41155;39.768;2.712;2023-02-19T11:27:35;102461.59;;;38.55;16.43
55291;BME280;41155;39.768;2.712;2023-02-19T11:30:41;102465.56;;;38.21;16.84
55291;BME280;41155;39.768;2.712;2023-02-19T11:33:31;102473.34;;;37.44;17.23
55291;BME280;41155;39.768;2.712;2023-02-19T11:36:34;102479.97;;;37.07;17.38
55291;BME280;41155;39.768;2.712;2023-02-19T11:52:45;102462.41;;;36.70;18.39
55291;BME280;41155;39.768;2.712;2023-02-19T11:58:14;102454.38;;;37.38;17.46
55291;BME280;41155;39.768;2.712;2023-02-19T12:00:51;102445.41;;;38.02;16.67
55291;BME280;41155;39.768;2.712;2023-02-19T12:06:17;102441.81;;;38.91;16.22
55291;BME280;41155;39.768;2.712;2023-02-19T12:26:26;102411.59;;;38.66;16.52
55291;BME280;41155;39.768;2.712;2023-02-19T12:36:30;102397.88;;;38.50;17.22
55291;BME280;41155;39.768;2.712;2023-02-19T12:47:06;102368.06;;;38.35;17.47
55291;BME280;41155;39.768;2.712;2023-02-19T12:49:39;102373.59;;;37.52;18.11
55291;BME280;41155;39.768;2.712;2023-02-19T12:52:15;102363.66;;;36.37;19.22
55291;BME280;41155;39.768;2.712;2023-02-19T12:54:49;102373.72;;;36.38;19.03
55291;BME280;41155;39.768;2.712;2023-02-19T12:57:22;102372.22;;;35.33;20.94
55291;BME280;41155;39.768;2.712;2023-02-19T13:02:20;102359.88;;;35.11;20.38
55291;BME280;41155;39.768;2.712;2023-02-19T13:05:01;102367.75;;;35.99;20.09
55291;BME280;41155;39.768;2.712;2023-02-19T13:07:54;102368.94;;;35.27;21.09
55291;BME280;41155;39.768;2.712;2023-02-19T13:10:35;102355.84;;;35.08;20.74
55291;BME280;41155;39.768;2.712;2023-02-19T13:13:16;102348.50;;;34.47;21.47
55291;BME280;41155;39.768;2.712;2023-02-19T13:15:49;102339.25;;;34.69;21.78
55291;BME280;41155;39.768;2.712;2023-02-19T13:18:28;102349.09;;;33.67;22.55
55291;BME280;41155;39.768;2.712;2023-02-19T13:20:54;102328.34;;;34.37;21.93
55291;BME280;41155;39.768;2.712;2023-02-19T13:23:30;102353.28;;;33.38;23.09
55291;BME280;41155;39.768;2.712;2023-02-19T13:34:47;102343.09;;;32.91;23.73
55291;BME280;41155;39.768;2.712;2023-02-19T13:37:17;102336.81;;;33.33;23.07
55291;BME280;41155;39.768;2.712;2023-02-19T13:39:47;102328.63;;;32.70;24.19
55291;BME280;41155;39.768;2.712;2023-02-19T13:42:25;102322.19;;;32.50;24.52
55291;BME280;41155;39.768;2.712;2023-02-19T13:44:52;102330.84;;;31.85;25.14
55291;BME280;41155;39.768;2.712;2023-02-19T13:50:26;102320.81;;;32.44;24.40
55291;BME280;41155;39.768;2.712;2023-02-19T13:52:53;102302.03;;;31.24;25.71
55291;BME280;41155;39.768;2.712;2023-02-19T14:00:56;102244.56;;;31.64;24.67
55291;BME280;41155;39.768;2.712;2023-02-19T14:03:44;102319.81;;;32.04;24.47
55291;BME280;41155;39.768;2.712;2023-02-19T14:06:11;102270.34;;;31.89;24.90
55291;BME280;41155;39.768;2.712;2023-02-19T14:08:58;102309.00;;;31.43;26.22
55291;BME280;41155;39.768;2.712;2023-02-19T14:14:41;102300.19;;;30.14;27.67
55291;BME280;41155;39.768;2.712;2023-02-19T14:19:50;102288.91;;;29.20;28.81
55291;BME280;41155;39.768;2.712;2023-02-19T14:28:22;102287.09;;;27.23;31.99
55291;BME280;41155;39.768;2.712;2023-02-19T14:30:55;102281.16;;;26.64;33.01
55291;BME280;41155;39.768;2.712;2023-02-19T14:33:24;102282.75;;;26.08;34.26
55291;BME280;41155;39.768;2.712;2023-02-19T14:35:54;102272.34;;;25.60;35.80
55291;BME280;41155;39.768;2.712;2023-02-19T14:39:05;102246.47;;;25.33;35.47
55291;BME280;41155;39.768;2.712;2023-02-19T14:41:23;102264.78;;;25.07;36.37
55291;BME280;41155;39.768;2.712;2023-02-19T14:43:51;102261.47;;;24.82;37.16
55291;BME280;41155;39.768;2.712;2023-02-19T14:48:49;102250.16;;;24.56;37.88
55291;BME280;41155;39.768;2.712;2023-02-19T14:51:37;102246.66;;;23.95;38.97
55291;BME280;41155;39.768;2.712;2023-02-19T14:54:16;102238.00;;;23.88;39.56
55291;BME280;41155;39.768;2.712;2023-02-19T14:56:49;102243.72;;;23.91;39.72
55291;BME280;41155;39.768;2.712;2023-02-19T15:01:44;102222.06;;;23.85;39.51
55291;BME280;41155;39.768;2.712;2023-02-19T15:04:21;102235.25;;;23.88;39.81
55291;BME280;41155;39.768;2.712;2023-02-19T15:06:47;102212.72;;;23.67;39.89
55291;BME280;41155;39.768;2.712;2023-02-19T15:09:15;102239.91;;;23.74;39.88
55291;BME280;41155;39.768;2.712;2023-02-19T15:11:41;102234.19;;;23.70;39.90
55291;BME280;41155;39.768;2.712;2023-02-19T15:14:18;102228.19;;;23.49;40.65
55291;BME280;41155;39.768;2.712;2023-02-19T15:16:45;102235.75;;;23.57;40.58
55291;BME280;41155;39.768;2.712;2023-02-19T15:19:12;102228.59;;;23.56;40.77
55291;BME280;41155;39.768;2.712;2023-02-19T15:21:44;102215.13;;;23.22;41.31
55291;BME280;41155;39.768;2.712;2023-02-19T15:24:13;102232.75;;;23.40;41.09
55291;BME280;41155;39.768;2.712;2023-02-19T15:26:42;102233.00;;;23.24;41.76
55291;BME280;41155;39.768;2.712;2023-02-19T15:29:12;102221.72;;;23.07;42.35